Time;durP1;ratioP1;P1;durP2;ratioP2;P2;SDS_P1;SDS_P2;PMS_P1;PMS_P2;Temp;Humidity;BMP_temperature;BMP_pressure;BME280_temperature;BME280_humidity;BME280_pressure;Samples;Min_cycle;Max_cycle;Signal;HPM_P1;HPM_P2
2023/08/10 00:00:23;;;;;;;5.03;2.03;;;;;14.80;101522.00;;;;5030219;28;20227;-66
2023/08/10 00:03:11;;;;;;;3.57;1.97;;;;;14.80;101524.00;;;;5030239;28;20624;-65
2023/08/10 00:05:58;;;;;;;3.27;1.97;;;;;14.80;101525.00;;;;5025923;28;20272;-66
2023/08/10 00:08:44;;;;;;;4.90;2.03;;;;;14.80;101532.00;;;;5029039;28;20627;-66
2023/08/10 00:11:31;;;;;;;5.10;2.33;;;;;14.80;101527.00;;;;5028778;28;20232;-66
2023/08/10 00:14:17;;;;;;;2.90;2.10;;;;;14.80;101539.00;;;;5026639;28;20291;-66
2023/08/10 00:17:04;;;;;;;7.70;3.23;;;;;14.70;101529.00;;;;5021450;28;21152;-66
2023/08/10 00:19:52;;;;;;;5.23;2.23;;;;;14.70;101525.00;;;;5022334;28;20669;-66
2023/08/10 00:22:39;;;;;;;2.70;2.17;;;;;14.70;101525.00;;;;5025493;28;20260;-65
2023/08/10 00:25:26;;;;;;;3.17;2.10;;;;;14.70;101531.00;;;;5024555;28;20233;-65
2023/08/10 00:28:12;;;;;;;7.33;2.30;;;;;14.70;101530.00;;;;5022518;28;20818;-65
2023/08/10 00:30:59;;;;;;;4.43;2.20;;;;;14.80;101539.00;;;;5029215;28;20310;-66
2023/08/10 00:33:45;;;;;;;5.17;2.37;;;;;14.70;101528.00;;;;5027053;28;20289;-65
2023/08/10 00:36:33;;;;;;;6.00;2.20;;;;;14.70;101529.00;;;;5022029;28;20748;-64
2023/08/10 00:39:20;;;;;;;3.53;2.30;;;;;14.70;101517.00;;;;5024800;28;20220;-65
2023/08/10 00:42:06;;;;;;;4.33;2.40;;;;;14.70;101521.00;;;;5018806;28;21625;-64
2023/08/10 00:44:54;;;;;;;4.90;2.60;;;;;14.70;101523.00;;;;5024972;28;20235;-66
2023/08/10 00:47:41;;;;;;;4.70;2.60;;;;;14.60;101518.00;;;;5021188;28;20232;-65
2023/08/10 00:50:28;;;;;;;5.93;2.50;;;;;14.60;101519.00;;;;5025072;28;20228;-65
2023/08/10 00:53:17;;;;;;;4.37;2.10;;;;;14.70;101528.00;;;;5024266;28;20244;-65
2023/08/10 00:56:05;;;;;;;4.13;2.20;;;;;14.70;101530.00;;;;5021555;28;20239;-65
2023/08/10 00:58:52;;;;;;;3.20;2.50;;;;;14.70;101528.00;;;;5024413;28;20282;-65
2023/08/10 01:01:39;;;;;;;6.27;2.53;;;;;14.70;101525.00;;;;5026572;28;20365;-66
2023/08/10 01:04:25;;;;;;;7.27;2.50;;;;;14.70;101546.00;;;;5026299;28;20706;-64
2023/08/10 01:07:19;;;;;;;7.80;2.23;;;;;14.80;101534.00;;;;5026352;28;20237;-65
2023/08/10 01:10:16;;;;;;;3.23;2.30;;;;;14.90;101537.00;;;;5016651;28;20953;-65
2023/08/10 01:13:10;;;;;;;5.27;2.50;;;;;14.90;101538.00;;;;5021344;28;20733;-65
2023/08/10 01:16:02;;;;;;;5.30;2.33;;;;;14.80;101542.00;;;;5025008;28;20272;-63
2023/08/10 01:18:51;;;;;;;2.83;2.20;;;;;14.80;101541.00;;;;5025996;28;20236;-66
2023/08/10 01:21:44;;;;;;;7.00;2.27;;;;;14.80;101545.00;;;;5025381;28;20292;-67
2023/08/10 01:24:33;;;;;;;4.63;2.40;;;;;14.70;101544.00;;;;5022874;28;20237;-66
2023/08/10 01:27:21;;;;;;;3.07;2.37;;;;;14.70;101537.00;;;;5025472;28;20757;-67
2023/08/10 01:30:10;;;;;;;5.53;2.37;;;;;14.70;101553.00;;;;5023963;28;20281;-67
2023/08/10 01:32:56;;;;;;;3.57;2.30;;;;;14.70;101548.00;;;;5018095;28;20840;-67
2023/08/10 01:35:42;;;;;;;2.77;2.40;;;;;14.70;101561.00;;;;5019861;28;20224;-67
2023/08/10 01:38:29;;;;;;;6.10;2.47;;;;;14.70;101558.00;;;;5022013;28;20733;-67
2023/08/10 01:41:15;;;;;;;3.20;2.60;;;;;14.80;101558.00;;;;5025760;28;20791;-68
2023/08/10 01:44:03;;;;;;;3.13;2.47;;;;;14.70;101561.00;;;;5022643;28;20655;-67
2023/08/10 01:46:53;;;;;;;3.63;2.40;;;;;14.80;101576.00;;;;5025057;28;20612;-65
2023/08/10 01:49:40;;;;;;;7.47;2.30;;;;;14.70;101568.00;;;;5025494;28;20244;-67
2023/08/10 01:52:31;;;;;;;7.17;2.43;;;;;14.70;101567.00;;;;5023014;28;20272;-67
2023/08/10 01:55:19;;;;;;;3.90;2.40;;;;;14.70;101572.00;;;;5024955;28;20232;-66
2023/08/10 01:58:06;;;;;;;2.90;2.60;;;;;14.80;101581.00;;;;5024996;28;20231;-66
2023/08/10 02:00:54;;;;;;;5.87;2.83;;;;;14.80;101581.00;;;;5025550;28;20237;-65
2023/08/10 02:03:40;;;;;;;3.13;2.40;;;;;14.80;101576.00;;;;5024033;28;20238;-66
2023/08/10 02:06:27;;;;;;;4.13;2.70;;;;;14.80;101583.00;;;;5016793;28;20228;-66
2023/08/10 02:09:13;;;;;;;4.23;2.30;;;;;14.80;101581.00;;;;5025205;28;20366;-67
2023/08/10 02:12:01;;;;;;;5.43;2.70;;;;;14.80;101577.00;;;;5021137;28;20345;-66
2023/08/10 02:14:47;;;;;;;5.43;2.70;;;;;14.80;101584.00;;;;5015169;28;20229;-66
2023/08/10 02:17:36;;;;;;;5.17;2.80;;;;;14.80;101580.00;;;;5019767;28;20887;-65
2023/08/10 02:20:23;;;;;;;4.83;2.50;;;;;14.80;101581.00;;;;5009166;28;20232;-65
2023/08/10 02:23:10;;;;;;;6.97;2.53;;;;;14.80;101578.00;;;;5020961;28;20276;-66
2023/08/10 02:25:56;;;;;;;4.77;2.97;;;;;14.80;101571.00;;;;5017106;28;20649;-66
2023/08/10 02:28:43;;;;;;;4.30;2.83;;;;;14.80;101575.00;;;;5022458;28;20241;-66
2023/08/10 02:31:29;;;;;;;5.37;2.60;;;;;14.80;101570.00;;;;5022908;28;20227;-66
2023/08/10 02:34:17;;;;;;;8.07;2.90;;;;;14.70;101571.00;;;;5023664;28;20237;-66
2023/08/10 02:37:04;;;;;;;4.17;2.67;;;;;14.80;101576.00;;;;5016091;28;20726;-65
2023/08/10 02:39:50;;;;;;;5.23;2.40;;;;;14.80;101570.00;;;;5018923;28;20236;-67
2023/08/10 02:42:37;;;;;;;4.60;2.50;;;;;14.80;101564.00;;;;5023500;28;20261;-66
2023/08/10 02:45:23;;;;;;;5.07;2.50;;;;;14.70;101572.00;;;;5020682;28;20606;-67
2023/08/10 02:48:09;;;;;;;4.23;2.77;;;;;14.70;101570.00;;;;5018334;28;20225;-65
2023/08/10 02:50:58;;;;;;;3.73;2.63;;;;;14.80;101569.00;;;;5022160;28;20233;-66
2023/08/10 02:53:45;;;;;;;5.73;2.90;;;;;14.70;101564.00;;;;5023109;28;20624;-67
2023/08/10 02:56:31;;;;;;;6.17;3.03;;;;;14.70;101560.00;;;;5020448;28;20345;-66
2023/08/10 02:59:17;;;;;;;7.57;2.90;;;;;14.80;101551.00;;;;5014158;28;20730;-65
2023/08/10 03:02:05;;;;;;;13.67;3.17;;;;;14.80;101558.00;;;;5022254;28;20229;-66
2023/08/10 03:04:51;;;;;;;4.70;2.90;;;;;14.70;101552.00;;;;5022097;28;20299;-65
2023/08/10 03:07:39;;;;;;;10.87;3.30;;;;;14.70;101559.00;;;;5024726;28;20240;-64
2023/08/10 03:10:26;;;;;;;5.20;2.70;;;;;14.80;101561.00;;;;5024160;28;20235;-65
2023/08/10 03:13:12;;;;;;;6.03;2.90;;;;;14.80;101563.00;;;;5022164;28;20237;-65
2023/08/10 03:15:58;;;;;;;5.60;2.67;;;;;14.80;101573.00;;;;5016982;28;20235;-67
2023/08/10 03:18:46;;;;;;;5.33;2.90;;;;;14.80;101561.00;;;;5023963;28;20715;-67
2023/08/10 03:21:32;;;;;;;4.83;2.50;;;;;14.80;101568.00;;;;5024257;28;20308;-67
2023/08/10 03:24:20;;;;;;;4.33;2.87;;;;;14.70;101573.00;;;;5022816;28;20241;-67
2023/08/10 03:27:07;;;;;;;7.73;2.73;;;;;14.60;101568.00;;;;5023763;28;20665;-66
2023/08/10 03:29:53;;;;;;;5.73;2.80;;;;;14.60;101561.00;;;;5024135;28;20231;-67
2023/08/10 03:32:40;;;;;;;4.27;2.83;;;;;14.60;101553.00;;;;5023880;28;20280;-66
2023/08/10 03:35:27;;;;;;;5.40;2.60;;;;;14.60;101565.00;;;;5023448;28;20668;-65
2023/08/10 03:38:13;;;;;;;7.00;2.83;;;;;14.60;101568.00;;;;5022131;28;20231;-66
2023/08/10 03:41:01;;;;;;;5.00;2.77;;;;;14.60;101570.00;;;;5016466;28;20348;-66
2023/08/10 03:43:48;;;;;;;3.27;2.90;;;;;14.60;101570.00;;;;5024036;28;20237;-68
2023/08/10 03:46:34;;;;;;;4.83;3.00;;;;;14.60;101573.00;;;;5020393;28;20230;-67
2023/08/10 03:49:22;;;;;;;4.37;2.70;;;;;14.60;101568.00;;;;5026893;28;20253;-67
2023/08/10 03:52:09;;;;;;;4.47;2.70;;;;;14.60;101575.00;;;;5020658;28;20304;-66
2023/08/10 03:54:55;;;;;;;4.40;3.00;;;;;14.60;101579.00;;;;5027248;28;20786;-67
2023/08/10 03:57:44;;;;;;;5.93;3.07;;;;;14.60;101587.00;;;;5025802;28;20237;-67
2023/08/10 04:00:31;;;;;;;6.50;2.97;;;;;14.50;101587.00;;;;5024441;28;20372;-67
2023/08/10 04:03:17;;;;;;;6.53;2.80;;;;;14.50;101589.00;;;;5014330;28;20241;-66
2023/08/10 04:06:04;;;;;;;3.87;2.87;;;;;14.40;101585.00;;;;5020815;28;21008;-67
2023/08/10 04:08:50;;;;;;;6.43;3.07;;;;;14.40;101586.00;;;;5017023;28;20727;-67
2023/08/10 04:11:37;;;;;;;7.00;2.87;;;;;14.40;101585.00;;;;5026261;28;20349;-67
2023/08/10 04:14:25;;;;;;;6.67;3.00;;;;;14.40;101588.00;;;;5024214;28;20275;-65
2023/08/10 04:17:11;;;;;;;9.43;3.43;;;;;14.40;101589.00;;;;5019964;28;20234;-66
2023/08/10 04:19:58;;;;;;;6.53;3.27;;;;;14.40;101586.00;;;;5022556;28;20239;-65
2023/08/10 04:22:44;;;;;;;6.07;3.30;;;;;14.30;101595.00;;;;5023211;28;20231;-65
2023/08/10 04:25:31;;;;;;;5.17;3.17;;;;;14.30;101599.00;;;;5023933;28;20239;-65
2023/08/10 04:28:18;;;;;;;6.40;3.57;;;;;14.30;101602.00;;;;5016290;28;20367;-64
2023/08/10 04:31:07;;;;;;;6.93;3.83;;;;;14.40;101604.00;;;;5023398;28;20393;-67
2023/08/10 04:33:54;;;;;;;3.77;3.00;;;;;14.30;101597.00;;;;5021200;28;20314;-67
2023/08/10 04:36:40;;;;;;;8.40;3.00;;;;;14.30;101603.00;;;;5024978;28;20786;-67
2023/08/10 04:39:27;;;;;;;4.47;3.00;;;;;14.40;101599.00;;;;5012417;28;20237;-65
2023/08/10 04:42:14;;;;;;;4.73;2.90;;;;;14.40;101604.00;;;;5022132;28;20249;-65
2023/08/10 04:45:00;;;;;;;7.50;2.90;;;;;14.40;101602.00;;;;5024062;28;20257;-65
2023/08/10 04:47:48;;;;;;;5.10;3.23;;;;;14.40;101599.00;;;;5024388;28;20359;-66
2023/08/10 04:50:35;;;;;;;5.63;2.93;;;;;14.40;101598.00;;;;5022014;28;20604;-66
2023/08/10 04:53:21;;;;;;;6.03;3.10;;;;;14.40;101594.00;;;;5018108;28;20613;-66
2023/08/10 04:56:07;;;;;;;6.97;3.03;;;;;14.50;101598.00;;;;5023098;28;20383;-65
2023/08/10 04:58:54;;;;;;;6.57;2.87;;;;;14.60;101603.00;;;;5020192;28;20404;-65
2023/08/10 05:01:40;;;;;;;7.30;2.90;;;;;14.60;101607.00;;;;5024168;28;20825;-66
2023/08/10 05:04:28;;;;;;;5.43;2.67;;;;;14.60;101613.00;;;;5024289;28;20707;-65
2023/08/10 05:07:15;;;;;;;5.97;3.13;;;;;14.70;101604.00;;;;5020173;28;20245;-67
2023/08/10 05:10:05;;;;;;;9.50;3.00;;;;;14.70;101603.00;;;;5026363;28;20227;-65
2023/08/10 05:12:51;;;;;;;5.30;3.73;;;;;14.80;101612.00;;;;5023841;28;20750;-65
2023/08/10 05:15:38;;;;;;;9.77;4.03;;;;;14.90;101606.00;;;;5026166;28;20342;-63
2023/08/10 05:18:24;;;;;;;5.57;4.30;;;;;14.90;101620.00;;;;5024050;28;20308;-65
2023/08/10 05:21:12;;;;;;;6.70;4.43;;;;;14.90;101623.00;;;;5026086;28;20231;-65
2023/08/10 05:23:58;;;;;;;4.37;3.50;;;;;14.90;101624.00;;;;5023823;28;20236;-65
2023/08/10 05:26:44;;;;;;;5.63;3.77;;;;;15.00;101620.00;;;;5023782;28;20299;-66
2023/08/10 05:29:31;;;;;;;7.97;4.57;;;;;15.00;101624.00;;;;5026068;28;20267;-66
2023/08/10 05:32:18;;;;;;;9.40;4.03;;;;;15.00;101626.00;;;;5022237;28;20714;-67
2023/08/10 05:35:06;;;;;;;9.10;4.70;;;;;15.00;101628.00;;;;5026132;28;20252;-66
2023/08/10 05:37:54;;;;;;;6.57;4.23;;;;;15.00;101626.00;;;;5022788;28;20730;-67
2023/08/10 05:40:41;;;;;;;9.33;4.20;;;;;15.00;101619.00;;;;5025633;28;20294;-65
2023/08/10 05:43:28;;;;;;;9.10;4.17;;;;;15.10;101629.00;;;;5020831;28;20285;-65
2023/08/10 05:46:14;;;;;;;5.47;4.03;;;;;15.10;101628.00;;;;5018447;28;20268;-65
2023/08/10 05:49:01;;;;;;;9.40;4.67;;;;;15.10;101620.00;;;;5025021;28;20243;-67
2023/08/10 05:51:47;;;;;;;6.83;4.20;;;;;15.10;101621.00;;;;5025957;28;20252;-67
2023/08/10 05:54:36;;;;;;;8.70;4.30;;;;;15.20;101623.00;;;;5020951;28;20233;-67
2023/08/10 05:57:22;;;;;;;8.20;4.63;;;;;15.20;101626.00;;;;5025236;28;20242;-65
2023/08/10 06:00:12;;;;;;;7.67;4.10;;;;;15.20;101612.00;;;;5021765;28;20376;-65
2023/08/10 06:02:59;;;;;;;10.07;4.50;;;;;15.30;101614.00;;;;5023426;28;20377;-65
2023/08/10 06:05:47;;;;;;;8.30;5.50;;;;;15.40;101620.00;;;;5021861;28;20232;-65
2023/08/10 06:08:34;;;;;;;12.37;4.80;;;;;15.40;101635.00;;;;5021228;28;20256;-65
2023/08/10 06:11:22;;;;;;;8.53;4.50;;;;;15.50;101627.00;;;;5018521;28;20328;-66
2023/08/10 06:14:24;;;;;;;8.83;5.20;;;;;15.60;101627.00;;;;5015672;28;20265;-65
2023/08/10 06:17:11;;;;;;;8.53;4.90;;;;;15.70;101635.00;;;;5021729;28;20224;-65
2023/08/10 06:19:58;;;;;;;9.80;5.07;;;;;15.70;101636.00;;;;5020324;28;20279;-64
2023/08/10 06:22:45;;;;;;;11.30;4.87;;;;;15.80;101630.00;;;;5020371;28;20229;-63
2023/08/10 06:25:31;;;;;;;8.73;5.10;;;;;15.80;101631.00;;;;5022346;28;20294;-65
2023/08/10 06:28:20;;;;;;;6.43;4.77;;;;;15.90;101628.00;;;;5025052;28;20226;-64
2023/08/10 06:31:09;;;;;;;8.77;5.07;;;;;15.90;101636.00;;;;5024253;28;20308;-66
2023/08/10 06:33:56;;;;;;;11.97;5.27;;;;;15.90;101634.00;;;;5021289;28;20321;-65
2023/08/10 06:36:42;;;;;;;7.40;4.87;;;;;16.00;101633.00;;;;5024868;28;20369;-66
2023/08/10 06:39:29;;;;;;;6.60;5.10;;;;;16.10;101631.00;;;;5017445;28;20789;-65
2023/08/10 06:42:17;;;;;;;12.40;5.60;;;;;16.10;101635.00;;;;5025013;28;20226;-66
2023/08/10 06:45:06;;;;;;;10.23;4.83;;;;;16.10;101629.00;;;;5023970;28;20235;-64
2023/08/10 06:47:53;;;;;;;8.77;4.97;;;;;16.10;101633.00;;;;5024415;28;20233;-67
2023/08/10 06:50:40;;;;;;;8.57;4.57;;;;;16.10;101623.00;;;;5016444;28;20233;-66
2023/08/10 06:53:27;;;;;;;5.97;4.07;;;;;16.10;101637.00;;;;5018764;28;20225;-65
2023/08/10 06:56:14;;;;;;;12.43;4.30;;;;;16.20;101638.00;;;;5025394;28;20237;-67
2023/08/10 06:59:01;;;;;;;8.27;4.67;;;;;16.30;101635.00;;;;5024269;28;20718;-67
2023/08/10 07:01:51;;;;;;;12.73;4.80;;;;;16.30;101638.00;;;;5024083;28;20711;-67
2023/08/10 07:04:39;;;;;;;12.20;4.40;;;;;16.30;101638.00;;;;5022506;28;20357;-67
2023/08/10 07:07:26;;;;;;;7.17;3.70;;;;;16.40;101638.00;;;;5017693;28;20609;-67
2023/08/10 07:10:13;;;;;;;8.40;3.40;;;;;16.50;101638.00;;;;5023898;28;20230;-67
2023/08/10 07:12:59;;;;;;;6.53;3.47;;;;;16.60;101645.00;;;;5023589;28;20332;-66
2023/08/10 07:15:46;;;;;;;6.63;2.70;;;;;16.60;101644.00;;;;5024428;28;20602;-66
2023/08/10 07:18:35;;;;;;;6.53;3.03;;;;;16.70;101638.00;;;;5016902;28;20225;-66
2023/08/10 07:21:22;;;;;;;6.17;2.70;;;;;16.70;101633.00;;;;5018496;28;20706;-65
2023/08/10 07:24:09;;;;;;;5.30;2.73;;;;;16.90;101641.00;;;;5026568;28;20678;-67
2023/08/10 07:26:56;;;;;;;4.03;2.77;;;;;17.00;101639.00;;;;5028106;28;20364;-66
2023/08/10 07:29:43;;;;;;;6.33;2.57;;;;;17.10;101631.00;;;;5024899;28;20229;-67
2023/08/10 07:32:29;;;;;;;5.07;2.63;;;;;17.10;101629.00;;;;5028119;28;20236;-64
2023/08/10 07:35:18;;;;;;;5.87;2.20;;;;;17.20;101634.00;;;;5027665;28;20622;-65
2023/08/10 07:38:04;;;;;;;11.57;2.40;;;;;17.30;101630.00;;;;5025846;28;20233;-64
2023/08/10 07:40:51;;;;;;;2.47;1.90;;;;;17.30;101625.00;;;;5032406;28;20303;-65
2023/08/10 07:43:38;;;;;;;5.50;2.43;;;;;17.30;101640.00;;;;5027786;28;20323;-69
2023/08/10 07:46:24;;;;;;;3.37;2.30;;;;;17.40;101623.00;;;;5017305;28;20980;-67
2023/08/10 07:49:11;;;;;;;4.20;2.07;;;;;17.50;101637.00;;;;5026506;28;20952;-67
2023/08/10 07:51:58;;;;;;;4.80;1.90;;;;;17.40;101638.00;;;;5027605;28;20237;-70
2023/08/10 07:54:45;;;;;;;7.50;2.10;;;;;17.40;101642.00;;;;5023089;28;20233;-69
2023/08/10 07:57:32;;;;;;;4.37;2.10;;;;;17.40;101636.00;;;;5025502;28;20333;-69
2023/08/10 08:00:19;;;;;;;5.03;1.93;;;;;17.40;101635.00;;;;5026981;28;20225;-69
2023/08/10 08:03:05;;;;;;;3.37;2.03;;;;;17.50;101633.00;;;;5016078;28;20309;-69
2023/08/10 08:05:52;;;;;;;3.80;2.07;;;;;17.60;101640.00;;;;5013562;28;20229;-70
2023/08/10 08:08:40;;;;;;;2.60;1.70;;;;;17.60;101636.00;;;;5018513;28;20225;-69
2023/08/10 08:11:28;;;;;;;5.10;2.00;;;;;17.60;101635.00;;;;5027473;28;20241;-69
2023/08/10 08:14:15;;;;;;;3.83;1.90;;;;;17.70;101635.00;;;;5023828;28;20229;-70
2023/08/10 08:17:02;;;;;;;4.57;1.70;;;;;17.70;101636.00;;;;5017805;28;20759;-69
2023/08/10 08:19:48;;;;;;;3.07;1.70;;;;;17.80;101631.00;;;;5024377;28;20706;-69
2023/08/10 08:22:35;;;;;;;3.57;1.50;;;;;17.90;101632.00;;;;5016786;28;20289;-69
2023/08/10 08:25:23;;;;;;;4.27;1.73;;;;;18.10;101639.00;;;;5006661;28;20233;-69
2023/08/10 08:28:09;;;;;;;3.93;1.77;;;;;18.10;101641.00;;;;5025678;28;20232;-69
2023/08/10 08:30:55;;;;;;;4.13;1.80;;;;;18.20;101642.00;;;;5027895;28;20765;-69
2023/08/10 08:33:43;;;;;;;2.70;1.60;;;;;18.50;101634.00;;;;5016841;28;20311;-69
2023/08/10 08:36:29;;;;;;;3.00;1.70;;;;;18.70;101632.00;;;;5024989;28;20229;-68
2023/08/10 08:39:15;;;;;;;3.93;1.60;;;;;18.60;101634.00;;;;5024622;28;20229;-70
2023/08/10 08:42:04;;;;;;;3.03;1.60;;;;;18.90;101635.00;;;;5025055;28;20312;-69
2023/08/10 08:44:51;;;;;;;4.07;1.60;;;;;19.00;101633.00;;;;5027278;28;20607;-70
2023/08/10 08:47:37;;;;;;;8.17;1.97;;;;;19.10;101634.00;;;;5022592;28;20240;-69
2023/08/10 08:50:27;;;;;;;3.57;1.60;;;;;19.20;101631.00;;;;5027228;28;20781;-68
2023/08/10 08:53:17;;;;;;;3.57;1.50;;;;;19.20;101640.00;;;;5018024;28;20239;-68
2023/08/10 08:56:04;;;;;;;3.77;1.60;;;;;19.30;101633.00;;;;5024721;28;20292;-68
2023/08/10 08:58:53;;;;;;;3.67;1.53;;;;;19.40;101632.00;;;;5022143;28;20686;-69
2023/08/10 09:01:40;;;;;;;2.17;1.57;;;;;19.40;101635.00;;;;5023736;28;20302;-69
2023/08/10 09:04:26;;;;;;;3.50;1.50;;;;;19.50;101637.00;;;;5025317;28;20238;-69
2023/08/10 09:07:13;;;;;;;8.00;1.60;;;;;19.60;101628.00;;;;5023954;28;20840;-69
2023/08/10 09:10:00;;;;;;;3.07;1.70;;;;;19.80;101630.00;;;;5025346;28;20341;-66
2023/08/10 09:12:46;;;;;;;3.70;1.60;;;;;19.90;101632.00;;;;5025627;28;21079;-69
2023/08/10 09:15:35;;;;;;;3.33;1.70;;;;;20.00;101634.00;;;;5018781;28;20227;-69
2023/08/10 09:18:21;;;;;;;3.60;1.63;;;;;20.00;101621.00;;;;5024671;28;20232;-69
2023/08/10 09:21:15;;;;;;;3.17;1.47;;;;;20.10;101622.00;;;;5025064;28;20275;-69
2023/08/10 09:24:02;;;;;;;4.20;1.77;;;;;20.10;101622.00;;;;5026031;28;20236;-69
2023/08/10 09:26:48;;;;;;;3.77;1.30;;;;;20.20;101621.00;;;;5020341;28;20243;-69
2023/08/10 09:29:34;;;;;;;6.73;1.70;;;;;20.30;101615.00;;;;5025262;28;20587;-68
2023/08/10 09:32:23;;;;;;;4.30;1.70;;;;;20.50;101618.00;;;;5022233;28;20303;-67
2023/08/10 09:35:13;;;;;;;2.57;1.60;;;;;20.70;101625.00;;;;5022056;28;20721;-68
2023/08/10 09:38:02;;;;;;;2.87;1.57;;;;;20.70;101621.00;;;;5021104;28;20226;-70
2023/08/10 09:40:48;;;;;;;4.27;1.50;;;;;20.80;101617.00;;;;5024142;28;20233;-69
2023/08/10 09:43:36;;;;;;;9.43;1.80;;;;;21.00;101624.00;;;;5024953;28;20237;-70
2023/08/10 09:46:25;;;;;;;4.63;1.53;;;;;21.10;101627.00;;;;5024262;28;20355;-69
2023/08/10 09:49:17;;;;;;;8.70;1.70;;;;;21.20;101627.00;;;;5024063;28;20312;-69
2023/08/10 09:52:04;;;;;;;2.93;1.50;;;;;21.20;101627.00;;;;5025311;28;20232;-69
2023/08/10 09:54:52;;;;;;;3.20;1.60;;;;;21.40;101632.00;;;;5019821;28;20594;-69
2023/08/10 09:57:40;;;;;;;1.83;1.40;;;;;21.60;101630.00;;;;5025640;28;20718;-69
2023/08/10 10:00:29;;;;;;;1.73;1.40;;;;;21.60;101635.00;;;;5019740;28;20225;-69
2023/08/10 10:03:16;;;;;;;2.03;1.57;;;;;21.70;101634.00;;;;5024944;28;20299;-69
2023/08/10 10:06:05;;;;;;;1.37;1.27;;;;;21.90;101634.00;;;;5020588;28;20565;-68
2023/08/10 10:08:57;;;;;;;3.07;1.40;;;;;21.90;101644.00;;;;5023778;28;20244;-69
2023/08/10 10:11:45;;;;;;;3.83;1.40;;;;;22.10;101625.00;;;;5025131;28;20275;-69
2023/08/10 10:14:32;;;;;;;2.97;1.67;;;;;22.30;101640.00;;;;5024859;28;20319;-69
2023/08/10 10:17:20;;;;;;;2.80;1.40;;;;;22.40;101633.00;;;;5022573;28;20315;-70
2023/08/10 10:20:11;;;;;;;2.73;1.30;;;;;22.60;101631.00;;;;5024063;28;20232;-69
2023/08/10 10:22:59;;;;;;;3.37;1.33;;;;;22.40;101623.00;;;;5024232;28;20221;-70
2023/08/10 10:25:58;;;;;;;2.57;1.40;;;;;22.30;101620.00;;;;5024139;28;20237;-69
2023/08/10 10:28:44;;;;;;;3.90;1.50;;;;;22.50;101613.00;;;;5018030;28;20229;-69
2023/08/10 10:31:31;;;;;;;2.60;1.40;;;;;22.70;101609.00;;;;5021181;28;20723;-69
2023/08/10 10:34:18;;;;;;;4.50;1.60;;;;;22.80;101619.00;;;;5023853;28;20241;-66
2023/08/10 10:37:10;;;;;;;1.83;1.57;;;;;22.70;101614.00;;;;5024066;28;20726;-68
2023/08/10 10:40:15;;;;;;;4.33;1.40;;;;;22.70;101619.00;;;;5024685;28;20233;-69
2023/08/10 10:43:06;;;;;;;3.00;1.37;;;;;22.80;101608.00;;;;5020977;28;20233;-65
2023/08/10 10:45:54;;;;;;;2.47;1.30;;;;;23.00;101603.00;;;;5018372;28;20221;-67
2023/08/10 10:48:40;;;;;;;4.37;1.40;;;;;23.10;101612.00;;;;5017262;28;20221;-67
2023/08/10 10:51:29;;;;;;;6.03;1.43;;;;;23.20;101615.00;;;;5022939;28;20234;-68
2023/08/10 10:54:15;;;;;;;2.20;1.43;;;;;23.30;101620.00;;;;5023848;28;20365;-68
2023/08/10 10:57:04;;;;;;;4.30;1.70;;;;;23.40;101613.00;;;;5022784;28;20304;-68
2023/08/10 10:59:52;;;;;;;5.00;1.70;;;;;23.40;101602.00;;;;5024980;28;20237;-68
2023/08/10 11:02:40;;;;;;;4.23;1.40;;;;;23.60;101598.00;;;;5024952;28;20229;-68
2023/08/10 11:05:27;;;;;;;3.43;1.80;;;;;23.70;101601.00;;;;5022543;28;20761;-68
2023/08/10 11:08:15;;;;;;;3.73;1.63;;;;;23.90;101606.00;;;;5024667;28;20233;-68
2023/08/10 11:11:02;;;;;;;2.63;1.63;;;;;23.90;101616.00;;;;5019034;28;20225;-68
2023/08/10 11:13:50;;;;;;;4.20;1.50;;;;;23.80;101619.00;;;;5017377;28;20241;-68
2023/08/10 11:16:42;;;;;;;2.53;1.50;;;;;23.50;101623.00;;;;5023608;28;20283;-68
2023/08/10 11:19:29;;;;;;;6.40;1.80;;;;;23.10;101626.00;;;;5023250;28;20233;-68
2023/08/10 11:22:17;;;;;;;2.63;1.73;;;;;22.70;101626.00;;;;5021197;28;20250;-69
2023/08/10 11:25:08;;;;;;;1.80;1.67;;;;;22.60;101633.00;;;;5021920;28;20237;-69
2023/08/10 11:27:56;;;;;;;4.07;1.70;;;;;22.40;101621.00;;;;5020403;28;20237;-68
2023/08/10 11:30:45;;;;;;;2.20;1.70;;;;;22.70;101615.00;;;;5025818;28;20368;-65
2023/08/10 11:33:32;;;;;;;1.60;1.50;;;;;23.00;101614.00;;;;5023181;28;20340;-68
2023/08/10 11:36:18;;;;;;;6.63;2.00;;;;;23.20;101620.00;;;;5021161;28;20236;-68
2023/08/10 11:39:07;;;;;;;2.87;1.67;;;;;23.40;101617.00;;;;5023516;28;20233;-69
2023/08/10 11:41:54;;;;;;;4.20;1.80;;;;;23.80;101605.00;;;;5019192;28;20425;-68
2023/08/10 11:44:47;;;;;;;3.40;1.63;;;;;24.20;101609.00;;;;5024414;28;20240;-68
2023/08/10 11:47:41;;;;;;;3.53;1.80;;;;;24.00;101622.00;;;;5021185;28;20349;-68
2023/08/10 11:50:30;;;;;;;3.83;1.93;;;;;24.40;101621.00;;;;5024437;28;20296;-68
2023/08/10 11:53:21;;;;;;;3.30;2.00;;;;;24.30;101621.00;;;;5020476;28;20238;-69
2023/08/10 11:56:08;;;;;;;2.67;1.80;;;;;24.30;101617.00;;;;5022274;28;20241;-67
2023/08/10 11:58:54;;;;;;;3.40;2.10;;;;;24.20;101618.00;;;;5013825;28;20388;-68
2023/08/10 12:01:51;;;;;;;4.32;2.20;;;;;24.30;101614.00;;;;5024061;28;20291;-67
2023/08/10 12:04:40;;;;;;;3.22;1.92;;;;;24.40;101609.00;;;;5023564;28;20236;-68
2023/08/10 12:07:27;;;;;;;2.43;1.90;;;;;24.80;101606.00;;;;5024149;28;20226;-69
2023/08/10 12:10:14;;;;;;;2.33;1.70;;;;;25.30;101597.00;;;;5022608;28;20384;-68
2023/08/10 12:13:01;;;;;;;2.33;1.77;;;;;25.80;101618.00;;;;5020256;28;20841;-69
2023/08/10 12:15:50;;;;;;;2.47;1.80;;;;;25.80;101625.00;;;;5026714;28;20230;-68
2023/08/10 12:18:38;;;;;;;2.70;1.90;;;;;25.30;101614.00;;;;5025489;28;20292;-66
2023/08/10 12:21:26;;;;;;;3.55;1.92;;;;;24.80;101620.00;;;;5013674;28;20233;-68
2023/08/10 12:24:12;;;;;;;4.18;1.80;;;;;24.30;101605.00;;;;5026753;28;20237;-68
2023/08/10 12:26:58;;;;;;;6.47;2.10;;;;;24.00;101604.00;;;;5026848;28;20353;-68
2023/08/10 12:29:45;;;;;;;3.20;1.95;;;;;23.80;101598.00;;;;5026817;28;20805;-69
2023/08/10 12:32:32;;;;;;;4.50;2.08;;;;;23.90;101599.00;;;;5026259;28;20250;-68
2023/08/10 12:35:18;;;;;;;2.83;1.90;;;;;23.70;101598.00;;;;5026216;28;20237;-69
2023/08/10 12:38:07;;;;;;;3.83;2.07;;;;;23.60;101601.00;;;;5026738;28;20249;-68
2023/08/10 12:40:54;;;;;;;3.93;2.10;;;;;23.50;101599.00;;;;5014893;28;20226;-68
2023/08/10 12:43:40;;;;;;;3.40;2.00;;;;;23.70;101603.00;;;;5026077;28;20256;-68
2023/08/10 12:46:26;;;;;;;2.90;2.00;;;;;23.80;101593.00;;;;5026640;28;20237;-68
2023/08/10 12:49:13;;;;;;;4.27;2.10;;;;;24.10;101599.00;;;;5022387;28;20624;-69
2023/08/10 12:51:59;;;;;;;2.50;2.10;;;;;24.60;101605.00;;;;5026524;28;20229;-68
2023/08/10 12:54:47;;;;;;;2.20;1.90;;;;;24.70;101604.00;;;;5019591;28;20245;-68
2023/08/10 12:57:36;;;;;;;3.20;1.80;;;;;24.70;101593.00;;;;5023829;28;20731;-68
2023/08/10 13:00:23;;;;;;;2.47;2.28;;;;;24.90;101590.00;;;;5013404;28;20753;-68
2023/08/10 13:03:09;;;;;;;2.47;2.07;;;;;24.90;101603.00;;;;5019902;28;20295;-71
2023/08/10 13:05:56;;;;;;;4.30;1.90;;;;;24.80;101595.00;;;;5012663;28;20217;-73
2023/08/10 13:08:42;;;;;;;2.70;2.20;;;;;24.70;101598.00;;;;5025246;28;20253;-70
2023/08/10 13:11:30;;;;;;;2.30;2.08;;;;;24.50;101599.00;;;;5026437;28;20757;-72
2023/08/10 13:14:16;;;;;;;2.47;1.90;;;;;24.40;101595.00;;;;5021588;28;20241;-71
2023/08/10 13:17:03;;;;;;;3.53;2.17;;;;;24.70;101594.00;;;;5026363;28;20280;-72
2023/08/10 13:19:51;;;;;;;8.18;2.15;;;;;25.30;101609.00;;;;5024732;28;20601;-74
2023/08/10 13:22:38;;;;;;;2.97;2.00;;;;;25.50;101613.00;;;;5022223;28;20228;-70
2023/08/10 13:25:24;;;;;;;5.00;2.10;;;;;25.30;101620.00;;;;5026306;28;20241;-70
2023/08/10 13:28:12;;;;;;;4.18;2.22;;;;;25.20;101619.00;;;;5019948;28;20268;-70
2023/08/10 13:30:59;;;;;;;3.30;2.27;;;;;24.90;101614.00;;;;5029192;28;20364;-68
2023/08/10 13:33:45;;;;;;;6.13;2.30;;;;;24.80;101608.00;;;;5025515;28;20789;-69
2023/08/10 13:36:31;;;;;;;2.80;2.10;;;;;24.50;101615.00;;;;5026430;28;20249;-71
2023/08/10 13:39:18;;;;;;;4.03;2.10;;;;;24.20;101619.00;;;;5025310;28;20287;-71
2023/08/10 13:42:05;;;;;;;3.00;2.00;;;;;24.10;101618.00;;;;5025421;28;20651;-70
2023/08/10 13:44:53;;;;;;;5.27;2.17;;;;;24.00;101623.00;;;;5020144;28;21347;-69
2023/08/10 13:47:40;;;;;;;4.10;2.20;;;;;24.00;101621.00;;;;5025599;28;20296;-70